createdAt,value
2022-11-24T00:00:31.018Z,1.30
2022-11-24T00:03:00.184Z,1.13
2022-11-24T00:05:28.190Z,0.88
2022-11-24T00:07:56.444Z,1.10
2022-11-24T00:10:24.162Z,1.00
2022-11-24T00:12:53.256Z,1.25
2022-11-24T00:15:21.011Z,1.00
2022-11-24T00:17:48.802Z,0.98
2022-11-24T00:20:17.599Z,1.05
2022-11-24T00:22:45.344Z,1.00
2022-11-24T00:25:13.106Z,0.90
2022-11-24T00:27:40.977Z,1.10
2022-11-24T00:30:11.039Z,0.95
2022-11-24T00:32:38.768Z,1.13
2022-11-24T00:35:07.611Z,0.98
2022-11-24T00:37:35.366Z,0.80
2022-11-24T00:40:03.186Z,0.93
2022-11-24T00:42:30.910Z,1.02
2022-11-24T00:44:58.654Z,0.90
2022-11-24T00:47:28.740Z,2.00
2022-11-24T00:49:56.490Z,1.27
2022-11-24T00:52:24.238Z,0.93
2022-11-24T00:54:52.398Z,1.05
2022-11-24T00:57:20.129Z,0.90
2022-11-24T00:59:47.900Z,0.52
2022-11-24T01:02:15.676Z,0.75
2022-11-24T01:04:44.779Z,1.00
2022-11-24T01:07:12.495Z,1.02
2022-11-24T01:09:43.069Z,1.20
2022-11-24T01:12:10.763Z,1.50
2022-11-24T01:14:39.094Z,1.38
2022-11-24T01:17:06.812Z,1.10
2022-11-24T01:19:34.515Z,0.82
2022-11-24T01:22:03.606Z,1.25
2022-11-24T01:24:31.510Z,1.00
2022-11-24T01:27:00.136Z,1.05
2022-11-24T01:29:27.958Z,0.80
2022-11-24T01:31:55.710Z,0.73
2022-11-24T01:34:23.517Z,0.88
2022-11-24T01:36:51.275Z,0.70
2022-11-24T01:39:20.343Z,0.85
2022-11-24T01:41:48.047Z,0.93
2022-11-24T01:44:24.451Z,0.80
2022-11-24T01:46:55.610Z,0.65
2022-11-24T01:49:28.812Z,0.80
2022-11-24T01:52:00.734Z,1.10
2022-11-24T01:54:34.388Z,1.05
2022-11-24T01:57:08.876Z,1.10
2022-11-24T01:59:37.217Z,1.20
2022-11-24T02:02:05.339Z,1.00
2022-11-24T02:04:35.520Z,1.20
2022-11-24T02:07:06.724Z,1.27
2022-11-24T02:09:43.223Z,1.27
2022-11-24T02:12:11.100Z,0.85
2022-11-24T02:14:41.672Z,1.02
2022-11-24T02:17:09.583Z,0.80
2022-11-24T02:19:49.691Z,0.90
2022-11-24T02:22:23.462Z,1.08
2022-11-24T02:24:57.114Z,0.73
2022-11-24T02:27:26.280Z,1.60
2022-11-24T02:29:54.068Z,1.10
2022-11-24T02:32:22.396Z,1.30
2022-11-24T02:34:50.159Z,1.38
2022-11-24T02:37:17.934Z,0.95
2022-11-24T02:39:45.632Z,1.33
2022-11-24T02:42:14.844Z,0.70
2022-11-24T02:44:48.459Z,0.95
2022-11-24T02:47:16.210Z,1.00
2022-11-24T02:49:43.911Z,0.82
2022-11-24T02:52:11.689Z,1.27
2022-11-24T02:54:39.438Z,0.90
2022-11-24T02:57:07.138Z,0.82
2022-11-24T02:59:34.922Z,1.17
2022-11-24T03:02:04.289Z,1.10
2022-11-24T03:04:32.548Z,1.20
2022-11-24T03:07:00.550Z,1.15
2022-11-24T03:09:28.418Z,0.75
2022-11-24T03:11:56.130Z,1.40
2022-11-24T03:14:23.907Z,1.35
2022-11-24T03:16:51.618Z,1.20
2022-11-24T03:19:20.690Z,1.10
2022-11-24T03:21:48.394Z,1.45
2022-11-24T03:24:16.186Z,1.23
2022-11-24T03:26:43.963Z,1.15
2022-11-24T03:29:14.026Z,1.77
2022-11-24T03:31:41.848Z,1.00
2022-11-24T03:34:09.979Z,2.10
2022-11-24T03:36:39.141Z,1.10
2022-11-24T03:39:07.058Z,1.27
2022-11-24T03:41:34.777Z,1.30
2022-11-24T03:44:02.697Z,1.05
2022-11-24T03:46:30.452Z,1.30
2022-11-24T03:48:58.255Z,1.58
2022-11-24T03:51:25.998Z,1.00
2022-11-24T03:53:55.099Z,2.03
2022-11-24T03:56:22.822Z,1.70
2022-11-24T03:58:50.996Z,1.10
2022-11-24T04:01:19.050Z,1.08
2022-11-24T04:03:46.927Z,1.25
2022-11-24T04:06:16.687Z,1.05
2022-11-24T04:08:44.394Z,1.30
2022-11-24T04:11:33.606Z,1.20
2022-11-24T04:14:00.381Z,1.08
2022-11-24T04:16:28.179Z,1.60
2022-11-24T04:18:55.795Z,1.10
2022-11-24T04:21:23.396Z,1.52
2022-11-24T04:23:51.195Z,1.58
2022-11-24T04:26:20.107Z,1.70
2022-11-24T04:28:47.692Z,1.00
2022-11-24T04:31:15.651Z,1.23
2022-11-24T04:33:43.251Z,1.38
2022-11-24T04:36:10.980Z,1.38
2022-11-24T04:39:23.084Z,1.48
2022-11-24T04:41:27.512Z,1.85
2022-11-24T04:43:55.137Z,1.55
2022-11-24T04:46:22.783Z,1.17
2022-11-24T04:48:50.463Z,1.10
2022-11-24T04:51:18.162Z,1.10
2022-11-24T04:53:45.714Z,1.17
2022-11-24T04:56:13.308Z,1.65
2022-11-24T04:58:42.223Z,1.25
2022-11-24T05:01:09.921Z,0.80
2022-11-24T05:03:37.947Z,1.17
2022-11-24T05:06:06.276Z,1.20
2022-11-24T05:08:33.921Z,1.35
2022-11-24T05:11:05.154Z,1.30
2022-11-24T05:13:33.038Z,1.48
2022-11-24T05:16:02.288Z,1.75
2022-11-24T05:18:30.225Z,1.25
2022-11-24T05:20:59.488Z,1.38
2022-11-24T05:23:27.803Z,1.30
2022-11-24T05:25:55.440Z,1.35
2022-11-24T05:28:23.064Z,1.70
2022-11-24T05:30:50.671Z,1.23
2022-11-24T05:33:20.588Z,1.38
2022-11-24T05:35:49.015Z,1.45
2022-11-24T05:38:17.692Z,1.42
2022-11-24T05:40:45.824Z,1.50
2022-11-24T05:43:13.898Z,1.70
2022-11-24T05:45:41.580Z,2.03
2022-11-24T05:48:11.460Z,1.17
2022-11-24T05:50:40.936Z,2.55
2022-11-24T05:53:10.702Z,1.48
2022-11-24T05:55:39.017Z,2.30
2022-11-24T05:58:09.411Z,1.48
2022-11-24T06:00:37.639Z,1.40
2022-11-24T06:03:05.711Z,1.27
2022-11-24T06:05:33.449Z,1.50
2022-11-24T06:08:02.519Z,1.60
2022-11-24T06:10:30.683Z,2.75
2022-11-24T06:12:58.414Z,1.80
2022-11-24T06:15:26.128Z,1.75
2022-11-24T06:17:55.527Z,2.00
2022-11-24T06:20:26.061Z,1.65
2022-11-24T06:22:58.688Z,1.55
2022-11-24T06:25:27.721Z,1.67
2022-11-24T06:27:55.589Z,2.40
2022-11-24T06:30:23.288Z,1.80
2022-11-24T06:32:55.740Z,1.40
2022-11-24T06:35:23.358Z,1.67
2022-11-24T06:37:50.980Z,1.40
2022-11-24T06:40:18.725Z,1.50
2022-11-24T06:42:52.567Z,1.35
2022-11-24T06:45:20.257Z,1.33
2022-11-24T06:47:48.141Z,1.27
2022-11-24T06:50:16.081Z,1.30
2022-11-24T06:52:43.697Z,2.30
2022-11-24T06:55:11.281Z,1.20
2022-11-24T06:57:38.919Z,1.30
2022-11-24T07:00:11.507Z,3.97
2022-11-24T07:02:45.416Z,1.30
2022-11-24T07:05:13.591Z,1.75
2022-11-24T07:07:41.330Z,1.02
2022-11-24T07:10:09.376Z,1.92
2022-11-24T07:12:37.000Z,1.10
2022-11-24T07:15:05.370Z,1.55
2022-11-24T07:17:36.650Z,1.17
2022-11-24T07:20:05.365Z,1.02
2022-11-24T07:22:33.347Z,0.75
2022-11-24T07:25:00.996Z,1.05
2022-11-24T07:27:29.034Z,0.82
2022-11-24T07:29:56.662Z,0.95
2022-11-24T07:32:24.262Z,0.73
2022-11-24T07:34:53.211Z,0.80
2022-11-24T07:37:20.853Z,0.90
2022-11-24T07:39:48.460Z,0.57
2022-11-24T07:42:16.110Z,0.43
2022-11-24T07:44:43.788Z,0.60
2022-11-24T07:47:11.551Z,1.27
2022-11-24T07:49:39.162Z,0.40
2022-11-24T07:52:08.720Z,0.50
2022-11-24T07:54:36.567Z,0.50
2022-11-24T07:57:04.355Z,0.55
2022-11-24T07:59:33.048Z,0.52
2022-11-24T08:02:00.697Z,0.40
2022-11-24T08:04:28.708Z,0.45
2022-11-24T08:06:56.263Z,0.30
2022-11-24T08:09:25.160Z,0.30
2022-11-24T08:11:52.763Z,0.20
2022-11-24T08:14:20.429Z,0.30
2022-11-24T08:16:48.056Z,0.20
2022-11-24T08:19:15.724Z,0.30
2022-11-24T08:21:43.477Z,0.28
2022-11-24T08:24:13.703Z,0.28
2022-11-24T08:26:43.160Z,0.30
2022-11-24T08:29:10.988Z,0.10
2022-11-24T08:31:39.989Z,0.30
2022-11-24T08:34:07.996Z,0.30
2022-11-24T08:36:35.678Z,0.20
2022-11-24T08:39:03.868Z,0.17
2022-11-24T08:41:31.608Z,0.25
2022-11-24T08:44:00.616Z,0.10
2022-11-24T08:46:28.317Z,0.40
2022-11-24T08:48:56.331Z,0.25
2022-11-24T08:51:25.796Z,0.30
2022-11-24T08:53:55.561Z,0.30
2022-11-24T08:56:23.312Z,0.10
2022-11-24T08:58:51.042Z,0.20
2022-11-24T09:01:20.126Z,0.17
2022-11-24T09:03:50.922Z,0.30
2022-11-24T09:06:19.924Z,0.30
2022-11-24T09:08:47.559Z,0.20
2022-11-24T09:11:17.083Z,0.40
2022-11-24T09:13:45.010Z,0.10
2022-11-24T09:16:14.549Z,0.17
2022-11-24T09:18:44.153Z,0.30
2022-11-24T09:21:14.240Z,0.40
2022-11-24T09:23:42.544Z,0.32
2022-11-24T09:26:12.399Z,0.20
2022-11-24T09:28:40.204Z,0.17
2022-11-24T09:31:09.877Z,0.20
2022-11-24T09:33:38.718Z,0.82
2022-11-24T09:36:08.957Z,0.50
2022-11-24T09:38:36.934Z,1.17
2022-11-24T09:41:22.913Z,1.30
2022-11-24T09:44:01.499Z,0.30
2022-11-24T09:46:33.991Z,0.90
2022-11-24T09:49:03.861Z,0.73
2022-11-24T09:51:34.552Z,1.05
2022-11-24T09:54:07.161Z,0.50
2022-11-24T09:56:37.768Z,0.33
2022-11-24T09:59:11.805Z,0.50
2022-11-24T10:01:43.268Z,0.77
2022-11-24T10:04:16.411Z,0.70
2022-11-24T10:06:51.524Z,0.55
2022-11-24T10:09:49.581Z,0.40
2022-11-24T10:12:32.908Z,1.13
2022-11-24T10:15:21.649Z,0.80
2022-11-24T10:18:19.433Z,2.65
2022-11-24T10:20:55.689Z,3.95
2022-11-24T10:23:43.533Z,3.60
2022-11-24T10:26:19.222Z,2.40
2022-11-24T10:28:53.876Z,4.03
2022-11-24T10:31:30.467Z,5.38
2022-11-24T10:34:02.450Z,2.88
2022-11-24T10:36:38.703Z,1.02
2022-11-24T10:39:24.724Z,1.40
2022-11-24T10:41:57.886Z,0.65
2022-11-24T10:44:25.964Z,1.05
2022-11-24T10:46:53.666Z,1.02
2022-11-24T10:49:26.358Z,1.33
2022-11-24T10:52:05.085Z,1.25
2022-11-24T10:54:35.803Z,1.30
2022-11-24T10:57:03.995Z,1.65
2022-11-24T10:59:37.869Z,2.20
2022-11-24T11:02:34.716Z,1.20
2022-11-24T11:05:28.349Z,1.40
2022-11-24T11:08:19.674Z,1.20
2022-11-24T11:10:50.573Z,1.10
2022-11-24T11:13:27.515Z,1.30
2022-11-24T11:15:56.065Z,1.52
2022-11-24T11:18:31.201Z,1.17
2022-11-24T11:21:02.782Z,2.33
2022-11-24T11:23:34.410Z,1.58
2022-11-24T11:26:33.121Z,1.23
2022-11-24T11:34:47.746Z,1.85
2022-11-24T11:37:16.784Z,1.83
2022-11-24T11:39:49.073Z,1.52
2022-11-24T11:43:00.103Z,2.20
2022-11-24T11:45:17.225Z,2.10
2022-11-24T11:47:48.821Z,1.00
2022-11-24T11:50:18.557Z,2.50
2022-11-24T11:53:06.215Z,2.33
2022-11-24T11:55:49.906Z,1.77
2022-11-24T11:58:51.015Z,1.70
2022-11-24T12:01:32.394Z,1.60
2022-11-24T12:04:14.348Z,1.60
2022-11-24T12:07:15.729Z,2.72
2022-11-24T12:09:57.165Z,1.70
2022-11-24T12:13:02.383Z,1.50
2022-11-24T12:15:37.004Z,2.30
2022-11-24T12:18:33.505Z,4.47
2022-11-24T12:21:13.170Z,2.72
2022-11-24T12:23:53.986Z,1.38
2022-11-24T12:26:30.882Z,5.45
2022-11-24T12:29:14.950Z,2.25
2022-11-24T12:31:53.401Z,3.83
2022-11-24T12:34:46.238Z,14.13
2022-11-24T12:37:29.710Z,3.15
2022-11-24T12:40:06.448Z,2.58
2022-11-24T12:42:44.639Z,1.92
2022-11-24T12:45:16.376Z,2.60
2022-11-24T12:48:04.502Z,1.50
2022-11-24T12:50:37.570Z,0.90
2022-11-24T12:53:11.214Z,1.85
2022-11-24T12:55:40.161Z,1.92
2022-11-24T12:58:14.695Z,1.48
2022-11-24T13:00:54.269Z,1.20
2022-11-24T13:03:37.223Z,1.38
2022-11-24T13:06:13.967Z,1.77
2022-11-24T13:08:42.135Z,1.50
2022-11-24T13:11:35.409Z,1.10
2022-11-24T13:14:07.540Z,1.05
2022-11-24T13:16:41.081Z,1.67
2022-11-24T13:19:23.827Z,1.80
2022-11-24T13:22:02.364Z,1.17
2022-11-24T13:24:32.022Z,1.40
2022-11-24T13:27:42.165Z,1.10
2022-11-24T13:30:54.145Z,1.10
2022-11-24T13:33:45.800Z,1.30
2022-11-24T13:36:53.088Z,1.67
2022-11-24T13:39:22.496Z,1.23
2022-11-24T13:42:42.269Z,1.33
2022-11-24T13:44:59.935Z,1.25
2022-11-24T13:47:39.031Z,1.85
2022-11-24T13:50:10.259Z,1.58
2022-11-24T13:52:48.258Z,1.52
2022-11-24T13:55:29.323Z,1.02
2022-11-24T13:58:00.765Z,1.30
2022-11-24T14:00:30.837Z,1.50
2022-11-24T14:03:02.031Z,1.20
2022-11-24T14:05:37.200Z,1.30
2022-11-24T14:08:09.348Z,1.50
2022-11-24T14:10:38.850Z,1.25
2022-11-24T14:13:26.010Z,2.05
2022-11-24T14:16:04.600Z,1.55
2022-11-24T14:18:32.972Z,1.10
2022-11-24T14:21:03.044Z,1.30
2022-11-24T14:23:32.439Z,1.33
2022-11-24T14:26:00.097Z,1.50
2022-11-24T14:28:29.985Z,1.50
2022-11-24T14:31:10.541Z,1.52
2022-11-24T14:33:38.218Z,1.50
2022-11-24T14:36:06.341Z,1.63
2022-11-24T14:38:35.431Z,1.20
2022-11-24T14:41:17.500Z,4.88
2022-11-24T14:43:45.169Z,1.73
2022-11-24T14:46:20.025Z,1.55
2022-11-24T14:48:49.971Z,1.63
2022-11-24T14:51:23.022Z,1.52
2022-11-24T14:53:54.513Z,1.60
2022-11-24T14:56:28.178Z,1.13
2022-11-24T14:58:57.280Z,0.90
2022-11-24T15:01:32.988Z,1.80
2022-11-24T15:07:19.619Z,2.10
2022-11-24T15:09:54.000Z,2.72
2022-11-24T15:12:28.961Z,1.52
2022-11-24T15:15:01.563Z,1.00
2022-11-24T15:17:30.847Z,1.33
2022-11-24T15:20:01.823Z,1.20
2022-11-24T15:22:37.046Z,1.20
2022-11-24T15:25:31.228Z,1.85
2022-11-24T15:27:58.875Z,1.48
2022-11-24T15:30:27.066Z,3.55
2022-11-24T15:32:56.371Z,2.17
2022-11-24T15:35:25.684Z,3.42
2022-11-24T15:37:53.488Z,3.28
2022-11-24T15:40:21.165Z,3.25
2022-11-24T15:42:53.920Z,3.83
2022-11-24T15:45:23.792Z,2.25
2022-11-24T15:47:51.867Z,7.72
2022-11-24T15:50:20.167Z,1.90
2022-11-24T15:52:49.169Z,1.05
2022-11-24T15:55:23.803Z,5.35
2022-11-24T15:57:52.771Z,5.65
2022-11-24T16:00:22.749Z,6.78
2022-11-24T16:02:50.626Z,2.75
2022-11-24T16:05:19.480Z,8.45
2022-11-24T16:07:47.343Z,6.78
2022-11-24T16:10:25.272Z,9.73
2022-11-24T16:12:54.502Z,4.10
2022-11-24T16:15:22.310Z,1.98
2022-11-24T16:17:50.143Z,4.60
2022-11-24T16:20:18.162Z,2.55
2022-11-24T16:22:45.864Z,2.45
2022-11-24T16:25:14.736Z,3.30
2022-11-24T16:27:42.363Z,1.80
2022-11-24T16:30:14.026Z,5.28
2022-11-24T16:32:41.731Z,2.70
2022-11-24T16:35:09.986Z,1.58
2022-11-24T16:37:37.851Z,1.58
2022-11-24T16:40:07.088Z,3.10
2022-11-24T16:42:34.710Z,4.18
2022-11-24T16:45:02.632Z,5.15
2022-11-24T16:47:32.504Z,3.70
2022-11-24T16:50:00.184Z,4.10
2022-11-24T16:52:28.867Z,3.10
2022-11-24T16:54:56.576Z,2.28
2022-11-24T16:57:24.225Z,2.78
2022-11-24T16:59:53.495Z,3.58
2022-11-24T17:02:21.127Z,3.50
2022-11-24T17:04:52.198Z,3.75
2022-11-24T17:07:20.272Z,3.70
2022-11-24T17:09:51.483Z,5.15
2022-11-24T17:12:19.089Z,4.22
2022-11-24T17:15:16.335Z,3.90
2022-11-24T17:17:55.210Z,4.68
2022-11-24T17:20:27.476Z,3.80
2022-11-24T17:22:55.577Z,7.93
2022-11-24T17:25:23.238Z,6.15
2022-11-24T17:27:51.602Z,5.50
2022-11-24T17:30:19.387Z,5.57
2022-11-24T17:32:51.240Z,5.30
2022-11-24T17:35:22.934Z,5.95
2022-11-24T17:37:51.892Z,5.50
2022-11-24T17:40:27.893Z,5.88
2022-11-24T17:42:59.001Z,6.65
2022-11-24T17:45:28.380Z,7.07
2022-11-24T17:47:56.729Z,13.15
2022-11-24T17:50:26.322Z,10.20
2022-11-24T17:52:55.572Z,9.52
2022-11-24T17:55:23.485Z,6.45
2022-11-24T17:57:51.560Z,5.47
2022-11-24T18:00:20.084Z,4.88
2022-11-24T18:02:47.741Z,5.40
2022-11-24T18:05:15.583Z,6.38
2022-11-24T18:07:43.259Z,11.45
2022-11-24T18:10:12.551Z,10.30
2022-11-24T18:12:40.176Z,8.90
2022-11-24T18:15:08.887Z,7.80
2022-11-24T18:17:36.474Z,6.57
2022-11-24T18:20:04.162Z,6.68
2022-11-24T18:22:57.837Z,6.13
2022-11-24T18:25:21.506Z,7.38
2022-11-24T18:27:49.517Z,8.90
2022-11-24T18:30:17.515Z,9.13
2022-11-24T18:32:45.171Z,7.72
2022-11-24T18:35:12.781Z,9.43
2022-11-24T18:37:44.062Z,7.15
2022-11-24T18:40:12.099Z,7.07
2022-11-24T18:42:41.030Z,7.55
2022-11-24T18:45:09.315Z,7.53
2022-11-24T18:47:36.899Z,7.15
2022-11-24T18:50:05.213Z,7.53
2022-11-24T18:52:32.810Z,8.30
2022-11-24T18:55:03.781Z,8.25
2022-11-24T18:57:31.718Z,8.07
2022-11-24T19:00:00.640Z,7.72
2022-11-24T19:02:28.344Z,9.30
2022-11-24T19:04:56.046Z,8.73
2022-11-24T19:07:23.678Z,8.32
2022-11-24T19:09:51.347Z,7.70
2022-11-24T19:12:18.995Z,10.15
2022-11-24T19:14:46.589Z,10.48
2022-11-24T19:17:15.583Z,17.55
2022-11-24T19:19:43.208Z,15.43
2022-11-24T19:22:10.854Z,12.05
2022-11-24T19:24:38.791Z,10.57
2022-11-24T19:27:06.395Z,10.10
2022-11-24T19:29:36.052Z,8.95
2022-11-24T19:32:06.921Z,8.98
2022-11-24T19:34:36.269Z,7.43
2022-11-24T19:37:04.590Z,7.75
2022-11-24T19:39:32.275Z,7.38
2022-11-24T19:41:59.833Z,8.48
2022-11-24T19:44:27.454Z,8.30
2022-11-24T19:46:55.018Z,8.00
2022-11-24T19:49:22.638Z,8.70
2022-11-24T19:51:51.529Z,8.18
2022-11-24T19:54:19.365Z,8.23
2022-11-24T19:56:46.992Z,7.80
2022-11-24T19:59:15.207Z,8.35
2022-11-24T20:01:43.444Z,7.22
2022-11-24T20:04:13.509Z,8.35
2022-11-24T20:06:43.456Z,8.20
2022-11-24T20:09:13.865Z,8.38
2022-11-24T20:11:42.351Z,8.90
2022-11-24T20:14:12.417Z,9.23
2022-11-24T20:16:40.175Z,7.63
2022-11-24T20:19:11.632Z,7.10
2022-11-24T20:21:41.390Z,8.70
2022-11-24T20:24:14.028Z,10.05
2022-11-24T20:26:43.985Z,6.22
2022-11-24T20:29:12.810Z,9.00
2022-11-24T20:31:42.537Z,8.15
2022-11-24T20:34:10.474Z,10.13
2022-11-24T20:36:40.696Z,9.82
2022-11-24T20:39:10.260Z,9.45
2022-11-24T20:41:40.121Z,9.35
2022-11-24T20:44:10.426Z,13.25
2022-11-24T20:46:40.156Z,12.32
2022-11-24T20:49:09.290Z,10.35
2022-11-24T20:51:41.894Z,10.27
2022-11-24T20:54:10.871Z,11.10
2022-11-24T20:56:41.469Z,10.10
2022-11-24T20:59:10.034Z,9.77
2022-11-24T21:01:39.135Z,9.50
2022-11-24T21:04:09.001Z,9.73
2022-11-24T21:06:37.630Z,9.20
2022-11-24T21:09:06.108Z,9.80
2022-11-24T21:11:33.798Z,9.88
2022-11-24T21:14:03.204Z,11.30
2022-11-24T21:16:32.277Z,9.45
2022-11-24T21:19:01.374Z,9.05
2022-11-24T21:21:33.655Z,9.57
2022-11-24T21:24:01.531Z,8.90
2022-11-24T21:26:29.424Z,8.02
2022-11-24T21:28:57.693Z,8.50
2022-11-24T21:31:26.662Z,8.63
2022-11-24T21:33:55.263Z,8.48
2022-11-24T21:36:24.776Z,8.68
2022-11-24T21:38:53.693Z,9.90
2022-11-24T21:41:24.159Z,8.10
2022-11-24T21:43:55.425Z,7.88
2022-11-24T21:46:23.498Z,7.72
2022-11-24T21:48:52.481Z,8.27
2022-11-24T21:51:21.728Z,7.85
2022-11-24T21:53:49.908Z,8.15
2022-11-24T21:56:19.332Z,8.20
2022-11-24T21:58:50.441Z,7.22
2022-11-24T22:01:19.962Z,7.82
2022-11-24T22:03:47.630Z,7.53
2022-11-24T22:06:19.036Z,7.38
2022-11-24T22:08:47.686Z,8.18
2022-11-24T22:11:17.035Z,8.40
2022-11-24T22:13:45.606Z,7.85
2022-11-24T22:16:15.256Z,7.60
2022-11-24T22:18:44.620Z,7.47
2022-11-24T22:21:14.001Z,7.80
2022-11-24T22:23:43.635Z,13.43
2022-11-24T22:26:14.265Z,12.30
2022-11-24T22:28:42.887Z,8.07
2022-11-24T22:31:12.442Z,7.18
2022-11-24T22:33:40.238Z,8.68
2022-11-24T22:36:08.883Z,8.43
2022-11-24T22:38:36.995Z,7.78
2022-11-24T22:41:08.048Z,7.88
2022-11-24T22:43:37.126Z,7.55
2022-11-24T22:46:05.841Z,7.18
2022-11-24T22:48:34.114Z,9.55
2022-11-24T22:51:03.127Z,7.93
2022-11-24T22:53:30.793Z,7.10
2022-11-24T22:56:02.258Z,7.07
2022-11-24T22:58:31.845Z,6.28
2022-11-24T23:01:06.088Z,6.63
2022-11-24T23:03:34.727Z,6.43
2022-11-24T23:06:02.813Z,7.00
2022-11-24T23:08:32.631Z,6.72
2022-11-24T23:11:01.557Z,6.55
2022-11-24T23:13:30.855Z,6.22
2022-11-24T23:16:02.595Z,6.20
2022-11-24T23:18:30.635Z,6.18
2022-11-24T23:20:58.226Z,6.30
2022-11-24T23:23:25.813Z,6.10
2022-11-24T23:25:53.381Z,6.68
2022-11-24T23:28:20.958Z,7.00
2022-11-24T23:30:49.863Z,6.50
2022-11-24T23:33:17.493Z,7.07
2022-11-24T23:35:45.120Z,6.13
2022-11-24T23:38:12.757Z,6.40
2022-11-24T23:40:40.343Z,6.85
2022-11-24T23:43:07.943Z,7.00
2022-11-24T23:45:35.498Z,6.68
2022-11-24T23:48:05.192Z,7.03
2022-11-24T23:50:32.857Z,6.40
2022-11-24T23:53:00.409Z,5.75
2022-11-24T23:55:28.163Z,6.43
2022-11-24T23:57:55.793Z,6.03
